Time;durP1;ratioP1;P1;durP2;ratioP2;P2;SDS_P1;SDS_P2;PMS_P1;PMS_P2;Temp;Humidity;BMP_temperature;BMP_pressure;BME280_temperature;BME280_humidity;BME280_pressure;Samples;Min_cycle;Max_cycle;Signal;HPM_P1;HPM_P2
2022/12/25 00:00:51;;;;;;;73.00;37.60;;;;;;;2.35;93.15;98934.83;86946;1294;99114;-80
2022/12/25 00:03:13;;;;;;;67.60;35.10;;;;;;;2.35;93.44;98933.43;86989;1291;22481;-80
2022/12/25 00:05:14;;;;;;;82.80;36.40;;;;;;;2.35;93.32;98938.80;86744;1315;22581;-80
2022/12/25 00:07:16;;;;;;;68.90;36.10;;;;;;;2.34;93.36;98943.33;86799;1307;98087;-79
2022/12/25 00:09:18;;;;;;;71.10;34.40;;;;;;;2.35;93.20;98947.48;86971;1315;22492;-79
2022/12/25 00:11:20;;;;;;;66.70;35.10;;;;;;;2.37;93.15;98943.46;86910;1315;22516;-80
2022/12/25 00:13:22;;;;;;;68.10;34.20;;;;;;;2.38;93.38;98943.78;86783;1298;99458;-80
2022/12/25 00:15:24;;;;;;;67.00;33.90;;;;;;;2.39;93.28;98943.60;86808;1297;22521;-80
2022/12/25 00:17:25;;;;;;;65.80;32.90;;;;;;;2.39;93.03;98947.23;87075;1312;26489;-80
2022/12/25 00:19:28;;;;;;;72.50;32.90;;;;;;;2.38;93.29;98945.01;86924;1313;97942;-79
2022/12/25 00:21:30;;;;;;;64.50;31.40;;;;;;;2.41;93.39;98943.75;86483;1314;22445;-80
2022/12/25 00:23:33;;;;;;;66.00;31.30;;;;;;;2.43;93.45;98948.38;86929;1318;22617;-80
2022/12/25 00:25:39;;;;;;;61.70;29.10;;;;;;;2.47;93.29;98950.60;86971;1312;98779;-79
2022/12/25 00:27:40;;;;;;;64.60;29.40;;;;;;;2.52;93.50;98960.04;86734;1309;22721;-81
2022/12/25 00:29:42;;;;;;;61.80;29.80;;;;;;;2.56;93.28;98956.86;87136;1313;24354;-79
2022/12/25 00:31:44;;;;;;;61.50;31.70;;;;;;;2.59;93.43;98962.89;86748;1315;98031;-81
2022/12/25 00:33:47;;;;;;;59.50;29.60;;;;;;;2.60;93.47;98970.33;87164;1311;22619;-80
2022/12/25 00:35:59;;;;;;;63.30;27.60;;;;;;;2.62;93.42;98967.54;87040;1289;25926;-79
2022/12/25 00:38:01;;;;;;;55.70;25.70;;;;;;;2.62;93.45;98958.86;86959;1313;97944;-80
2022/12/25 00:40:03;;;;;;;59.50;25.70;;;;;;;2.63;93.46;98960.92;87081;1314;22506;-81
2022/12/25 00:42:20;;;;;;;56.70;25.60;;;;;;;2.62;93.42;98970.81;87038;1307;22512;-80
2022/12/25 00:44:22;;;;;;;59.40;26.80;;;;;;;2.62;93.27;98971.54;86925;1315;97947;-80
2022/12/25 00:46:23;;;;;;;54.50;27.30;;;;;;;2.63;93.48;98973.59;87189;1303;23855;-80
2022/12/25 00:48:26;;;;;;;51.10;26.30;;;;;;;2.62;93.40;98976.89;86934;1315;22804;-80
2022/12/25 00:50:28;;;;;;;54.20;27.10;;;;;;;2.60;93.33;98980.90;86984;1312;97928;-80
2022/12/25 00:52:30;;;;;;;58.00;26.80;;;;;;;2.61;93.30;98982.46;87056;1314;23226;-81
2022/12/25 00:54:32;;;;;;;63.10;27.40;;;;;;;2.60;93.31;98978.83;87113;1291;22673;-81
2022/12/25 00:56:34;;;;;;;62.40;27.00;;;;;;;2.59;93.55;98980.74;86823;1313;97909;-81
2022/12/25 00:58:35;;;;;;;56.00;27.50;;;;;;;2.57;93.11;98984.09;87026;1314;25219;-81
2022/12/25 01:00:38;;;;;;;62.50;29.10;;;;;;;2.55;93.37;98987.56;87128;1316;22428;-81
2022/12/25 01:02:39;;;;;;;55.00;28.90;;;;;;;2.55;93.34;98993.30;86841;1316;98984;-81
2022/12/25 01:04:41;;;;;;;67.40;30.40;;;;;;;2.55;93.36;99005.79;86953;1301;23253;-80
2022/12/25 01:06:43;;;;;;;62.90;29.50;;;;;;;2.54;93.39;99013.61;87168;1314;25281;-81
2022/12/25 01:11:07;;;;;;;60.80;28.60;;;;;;;2.48;93.04;99014.58;87254;1313;22914;-79
2022/12/25 01:13:09;;;;;;;63.80;31.70;;;;;;;2.45;93.16;99024.15;87202;1315;98974;-80
2022/12/25 01:15:12;;;;;;;60.00;32.30;;;;;;;2.46;93.08;99028.14;87152;1317;23703;-80
2022/12/25 01:17:13;;;;;;;66.30;32.20;;;;;;;2.46;93.13;99036.09;87550;1314;22524;-81
2022/12/25 01:19:15;;;;;;;57.50;32.60;;;;;;;2.47;93.25;99040.77;87275;1315;97908;-81
2022/12/25 01:21:22;;;;;;;64.80;34.40;;;;;;;2.49;93.21;99047.16;87249;1314;23288;-81
2022/12/25 01:23:23;;;;;;;65.90;34.80;;;;;;;2.49;93.45;99046.11;87132;1315;22481;-81
2022/12/25 01:25:25;;;;;;;71.30;34.40;;;;;;;2.50;93.33;99038.64;87140;1310;97917;-81
2022/12/25 01:27:27;;;;;;;72.00;33.20;;;;;;;2.52;93.11;99044.52;87489;1313;22820;-80
2022/12/25 01:29:29;;;;;;;65.40;32.60;;;;;;;2.53;93.27;99046.23;87209;1313;22537;-81
2022/12/25 01:31:30;;;;;;;62.70;31.50;;;;;;;2.54;93.60;99046.40;86908;1290;98767;-81
2022/12/25 01:33:32;;;;;;;55.60;31.10;;;;;;;2.53;93.22;99050.05;87124;1314;26625;-80
2022/12/25 01:35:38;;;;;;;61.00;30.00;;;;;;;2.52;93.26;99047.63;87193;1312;22574;-79
2022/12/25 01:37:40;;;;;;;56.70;27.80;;;;;;;2.49;93.16;99045.94;87212;1302;98038;-81
2022/12/25 01:39:41;;;;;;;49.70;28.60;;;;;;;2.46;92.97;99042.16;87012;1313;23114;-81
2022/12/25 01:41:43;;;;;;;57.60;28.10;;;;;;;2.44;93.13;99044.28;86911;1315;22551;-81
2022/12/25 01:44:13;;;;;;;52.90;27.00;;;;;;;2.40;93.33;99044.33;86890;1292;98548;-81
2022/12/25 01:46:15;;;;;;;51.80;27.30;;;;;;;2.36;92.90;99059.65;87031;1314;25238;-80
2022/12/25 01:48:24;;;;;;;61.80;29.30;;;;;;;2.33;93.07;99058.65;87074;1313;22650;-80
2022/12/25 01:50:26;;;;;;;71.20;30.30;;;;;;;2.28;93.04;99050.39;87038;1314;99152;-81
2022/12/25 01:52:31;;;;;;;54.50;27.80;;;;;;;2.30;93.03;99054.70;87169;1312;23341;-81
2022/12/25 01:54:40;;;;;;;60.30;28.70;;;;;;;2.28;93.07;99052.65;87063;1313;22480;-81
2022/12/25 01:56:44;;;;;;;60.00;28.00;;;;;;;2.26;93.10;99050.42;86937;1316;97931;-81
2022/12/25 01:58:46;;;;;;;51.10;24.20;;;;;;;2.24;92.95;99051.31;87093;1297;24397;-81
2022/12/25 02:00:50;;;;;;;55.40;26.70;;;;;;;2.22;92.77;99054.29;86908;1314;98096;-82
2022/12/25 02:02:52;;;;;;;66.00;29.00;;;;;;;2.19;92.76;99054.83;87073;1314;22581;-80
2022/12/25 02:05:28;;;;;;;65.70;28.80;;;;;;;2.17;93.12;99050.34;87080;1314;22454;-80
2022/12/25 02:07:33;;;;;;;63.40;27.20;;;;;;;2.16;92.87;99053.31;87023;1314;98883;-81
2022/12/25 02:09:36;;;;;;;60.70;28.30;;;;;;;2.14;92.91;99058.55;87085;1319;22505;-82
2022/12/25 02:11:56;;;;;;;66.70;29.70;;;;;;;2.13;93.02;99061.69;87073;1319;22493;-81
2022/12/25 02:13:58;;;;;;;55.80;26.70;;;;;;;2.14;92.76;99063.75;87012;1305;97970;-81
2022/12/25 02:16:08;;;;;;;55.30;28.50;;;;;;;2.15;93.05;99067.20;87150;1310;22981;-82
2022/12/25 02:18:38;;;;;;;62.20;28.90;;;;;;;2.16;92.89;99063.73;87071;1313;23189;-81
2022/12/25 02:20:54;;;;;;;56.80;28.70;;;;;;;2.19;92.87;99071.48;87117;1312;98033;-82
2022/12/25 02:23:19;;;;;;;50.20;29.70;;;;;;;2.22;93.08;99067.11;87248;1312;22504;-81
2022/12/25 02:25:20;;;;;;;58.50;29.10;;;;;;;2.24;93.05;99066.75;87129;1314;98147;-80
2022/12/25 02:28:04;;;;;;;58.80;30.20;;;;;;;2.25;93.03;99070.89;87263;1314;23779;-81
2022/12/25 02:30:09;;;;;;;53.00;28.30;;;;;;;2.27;93.25;99076.59;87254;1312;22792;-81
2022/12/25 02:32:13;;;;;;;69.70;30.80;;;;;;;2.27;93.21;99074.52;87020;1319;98087;-81
2022/12/25 02:34:19;;;;;;;64.50;32.50;;;;;;;2.31;93.37;99078.45;87241;1306;22590;-82
2022/12/25 02:36:26;;;;;;;68.50;31.20;;;;;;;2.34;93.51;99080.83;87290;1319;23096;-80
2022/12/25 02:38:36;;;;;;;62.80;31.80;;;;;;;2.40;93.56;99087.18;87240;1296;98166;-82
2022/12/25 02:40:47;;;;;;;64.10;31.10;;;;;;;2.43;93.48;99087.29;87083;1297;22448;-80
2022/12/25 03:07:22;;;;;;;56.40;28.90;;;;;;;2.74;93.46;99096.75;87089;1313;97967;-81
2022/12/25 03:12:01;;;;;;;50.30;26.00;;;;;;;2.80;93.56;99092.69;87251;1311;22448;-81
2022/12/25 03:18:48;;;;;;;57.40;28.00;;;;;;;2.86;93.48;99093.98;87094;1312;98137;-81
2022/12/25 03:27:58;;;;;;;46.00;27.30;;;;;;;2.83;93.47;99092.45;87083;1305;22885;-81
2022/12/25 03:32:36;;;;;;;57.60;31.00;;;;;;;2.85;93.51;99097.81;87080;1312;97877;-80
2022/12/25 03:35:22;;;;;;;57.10;29.50;;;;;;;2.86;93.40;99097.63;87200;1312;22595;-81
2022/12/25 04:37:02;;;;;;;66.10;35.60;;;;;;;2.18;93.41;99142.57;87011;1292;98227;-80
2022/12/25 04:39:04;;;;;;;68.90;33.70;;;;;;;2.22;93.39;99143.21;87042;1307;22469;-79
2022/12/25 04:41:10;;;;;;;62.20;34.80;;;;;;;2.25;93.38;99142.15;86916;1316;22440;-79
2022/12/25 04:43:12;;;;;;;75.40;35.70;;;;;;;2.26;93.49;99137.63;87109;1297;98305;-78
2022/12/25 04:45:14;;;;;;;63.40;33.90;;;;;;;2.26;93.34;99140.73;86679;1297;22725;-79
2022/12/25 04:47:15;;;;;;;68.60;34.20;;;;;;;2.27;93.29;99146.29;87028;1298;22454;-79
2022/12/25 04:49:17;;;;;;;65.10;34.80;;;;;;;2.30;93.56;99151.45;86975;1298;98733;-79
2022/12/25 04:51:21;;;;;;;76.00;35.70;;;;;;;2.32;93.48;99153.16;87078;1316;22534;-79
2022/12/25 04:53:23;;;;;;;63.10;35.70;;;;;;;2.35;93.47;99148.61;86936;1312;23326;-79
2022/12/25 04:55:25;;;;;;;65.00;34.70;;;;;;;2.39;93.70;99145.80;86771;1314;99737;-79
2022/12/25 04:57:26;;;;;;;74.10;35.90;;;;;;;2.41;93.53;99151.66;87117;1312;22512;-79
2022/12/25 04:59:28;;;;;;;65.20;37.00;;;;;;;2.44;93.50;99154.75;87015;1313;24875;-79
2022/12/25 05:01:30;;;;;;;73.20;35.70;;;;;;;2.45;93.74;99159.59;86937;1313;99181;-80
2022/12/25 05:03:34;;;;;;;61.80;36.20;;;;;;;2.45;93.48;99161.48;86926;1307;22442;-78
2022/12/25 05:05:39;;;;;;;74.50;35.40;;;;;;;2.47;93.24;99161.82;86864;1287;22614;-79
2022/12/25 05:07:40;;;;;;;67.60;34.50;;;;;;;2.49;93.38;99157.64;86893;1314;98570;-78
2022/12/25 05:09:42;;;;;;;58.00;32.50;;;;;;;2.48;93.60;99157.11;87018;1301;22506;-79
2022/12/25 05:11:44;;;;;;;73.40;33.20;;;;;;;2.48;93.56;99162.67;86914;1312;22837;-80
2022/12/25 05:13:46;;;;;;;64.40;32.00;;;;;;;2.50;93.51;99156.60;86793;1290;97902;-79
2022/12/25 05:15:48;;;;;;;62.60;33.10;;;;;;;2.49;93.62;99150.35;87082;1313;22481;-79
2022/12/25 05:17:50;;;;;;;64.20;33.90;;;;;;;2.49;93.33;99149.30;87240;1312;22525;-79
2022/12/25 05:19:52;;;;;;;69.50;33.40;;;;;;;2.49;93.61;99150.02;87280;1304;98096;-80
2022/12/25 05:21:54;;;;;;;64.30;31.90;;;;;;;2.49;93.40;99153.98;87146;1316;25256;-79
2022/12/25 05:23:56;;;;;;;61.90;32.70;;;;;;;2.48;93.62;99155.39;87285;1303;22513;-79
2022/12/25 05:25:58;;;;;;;64.80;32.30;;;;;;;2.48;93.38;99155.92;86953;1315;99508;-79
2022/12/25 05:28:00;;;;;;;62.20;33.20;;;;;;;2.50;93.73;99160.22;87108;1313;22490;-80
2022/12/25 05:30:02;;;;;;;64.50;33.20;;;;;;;2.49;93.43;99160.73;87080;1312;22508;-78
2022/12/25 05:32:04;;;;;;;53.00;31.20;;;;;;;2.50;93.75;99160.56;86820;1314;98255;-78
2022/12/25 05:34:06;;;;;;;60.20;32.20;;;;;;;2.51;93.52;99159.69;87159;1312;22472;-79
2022/12/25 05:36:10;;;;;;;65.90;32.00;;;;;;;2.49;93.55;99163.36;87005;1313;22528;-79
2022/12/25 05:38:12;;;;;;;58.20;31.50;;;;;;;2.49;93.60;99165.96;86919;1291;97790;-79
2022/12/25 05:40:14;;;;;;;62.10;33.40;;;;;;;2.48;93.48;99165.98;86930;1291;22528;-78
2022/12/25 05:42:15;;;;;;;71.30;33.50;;;;;;;2.49;93.59;99165.44;86948;1313;22561;-78
2022/12/25 05:44:17;;;;;;;70.60;32.80;;;;;;;2.50;93.55;99167.86;86666;1295;22754;-79
2022/12/25 05:46:19;;;;;;;65.30;31.50;;;;;;;2.50;93.28;99172.69;87068;1288;22656;-79
2022/12/25 05:48:20;;;;;;;64.80;32.60;;;;;;;2.49;93.48;99179.14;86876;1314;22515;-79
2022/12/25 05:50:22;;;;;;;65.80;34.10;;;;;;;2.50;93.53;99182.08;86987;1312;22511;-79
2022/12/25 05:52:24;;;;;;;68.50;32.50;;;;;;;2.50;93.56;99180.53;87037;1306;22542;-79
2022/12/25 05:54:26;;;;;;;65.10;35.50;;;;;;;2.50;93.51;99187.29;86818;1314;22454;-79
2022/12/25 05:56:27;;;;;;;67.00;35.00;;;;;;;2.51;93.44;99192.81;86702;1283;97950;-79
2022/12/25 05:58:30;;;;;;;69.00;35.00;;;;;;;2.52;93.73;99196.27;86526;1315;22529;-79
2022/12/25 06:00:33;;;;;;;64.20;37.00;;;;;;;2.52;93.45;99204.08;87162;1311;22506;-80
2022/12/25 06:02:35;;;;;;;65.70;35.60;;;;;;;2.53;93.37;99210.15;86917;1315;98074;-78
2022/12/25 06:04:37;;;;;;;55.60;33.50;;;;;;;2.53;93.61;99213.77;86959;1313;22495;-79
2022/12/25 06:06:39;;;;;;;63.50;33.60;;;;;;;2.53;93.66;99218.13;86965;1314;22504;-78
2022/12/25 06:08:41;;;;;;;72.40;34.40;;;;;;;2.53;93.50;99223.50;86781;1315;99488;-79
2022/12/25 06:10:43;;;;;;;71.40;35.40;;;;;;;2.54;93.61;99214.30;87065;1310;22535;-79
2022/12/25 06:12:45;;;;;;;66.70;35.70;;;;;;;2.54;93.77;99215.69;86961;1314;23527;-77
2022/12/25 06:14:47;;;;;;;63.70;32.20;;;;;;;2.53;93.44;99220.73;86563;1291;99309;-78
2022/12/25 06:16:52;;;;;;;70.70;33.60;;;;;;;2.53;93.50;99219.17;86575;1306;22603;-79
2022/12/25 06:18:54;;;;;;;60.40;32.40;;;;;;;2.53;93.36;99219.35;86572;1313;23056;-78
2022/12/25 06:20:56;;;;;;;54.20;33.20;;;;;;;2.53;93.49;99224.71;86496;1303;97983;-79
2022/12/25 06:22:58;;;;;;;72.50;36.80;;;;;;;2.54;93.35;99227.30;86926;1287;22531;-79
2022/12/25 06:25:00;;;;;;;62.50;34.70;;;;;;;2.54;93.50;99229.05;86945;1314;22538;-79
2022/12/25 06:27:02;;;;;;;64.50;33.50;;;;;;;2.53;93.67;99226.97;86619;1298;97720;-78
2022/12/25 06:29:04;;;;;;;55.80;29.50;;;;;;;2.52;93.37;99222.81;86404;1314;22561;-78
2022/12/25 06:31:08;;;;;;;67.10;33.40;;;;;;;2.51;93.43;99228.90;86813;1310;23111;-78
2022/12/25 06:33:10;;;;;;;62.40;32.10;;;;;;;2.49;93.55;99232.58;86531;1289;22485;-78
2022/12/25 06:35:11;;;;;;;58.00;31.50;;;;;;;2.48;93.25;99244.02;86625;1284;22615;-79
2022/12/25 06:37:16;;;;;;;65.30;33.80;;;;;;;2.47;93.21;99243.69;86717;1289;98180;-78
2022/12/25 06:39:17;;;;;;;63.60;33.60;;;;;;;2.45;93.44;99244.58;86620;1312;22554;-77
2022/12/25 06:41:23;;;;;;;62.10;33.70;;;;;;;2.43;93.42;99240.27;86880;1299;22571;-76
2022/12/25 06:43:25;;;;;;;59.90;33.10;;;;;;;2.40;93.00;99242.20;86421;1300;98555;-77
2022/12/25 06:45:27;;;;;;;77.60;34.50;;;;;;;2.38;93.19;99242.40;86689;1289;22760;-76
2022/12/25 06:47:28;;;;;;;58.10;32.80;;;;;;;2.36;93.41;99246.92;86497;1315;25417;-76
2022/12/25 06:49:30;;;;;;;76.90;35.40;;;;;;;2.34;93.28;99251.98;86628;1280;101380;-76
2022/12/25 06:51:33;;;;;;;61.80;35.50;;;;;;;2.32;93.40;99257.02;86625;1314;22554;-77
2022/12/25 06:53:34;;;;;;;71.40;36.40;;;;;;;2.31;93.42;99264.84;86627;1312;24366;-76
2022/12/25 06:55:36;;;;;;;73.80;35.90;;;;;;;2.31;93.47;99271.59;86407;1314;99599;-76
2022/12/25 06:57:38;;;;;;;68.60;36.50;;;;;;;2.30;93.38;99274.73;86495;1283;25451;-76
2022/12/25 06:59:39;;;;;;;65.50;35.90;;;;;;;2.29;93.43;99283.23;86703;1283;23861;-76
2022/12/25 07:01:54;;;;;;;66.60;35.10;;;;;;;2.29;93.36;99289.30;86454;1296;99698;-76
2022/12/25 07:03:59;;;;;;;72.30;36.60;;;;;;;2.28;93.32;99287.40;86653;1312;22540;-77
2022/12/25 07:06:00;;;;;;;68.00;35.70;;;;;;;2.27;93.40;99282.56;86604;1297;22485;-76
2022/12/25 07:08:02;;;;;;;57.50;35.30;;;;;;;2.27;93.26;99285.85;86634;1287;99213;-77
2022/12/25 07:10:05;;;;;;;65.90;35.80;;;;;;;2.27;93.52;99291.74;86525;1314;22516;-76
2022/12/25 07:12:19;;;;;;;72.00;37.40;;;;;;;2.25;93.12;99299.91;86744;1288;22524;-76
2022/12/25 07:14:22;;;;;;;64.50;34.70;;;;;;;2.26;93.59;99307.70;86574;1304;98539;-76
2022/12/25 07:16:24;;;;;;;58.90;37.00;;;;;;;2.26;93.34;99314.98;86536;1292;22731;-75
2022/12/25 07:18:27;;;;;;;71.20;38.50;;;;;;;2.27;93.74;99319.66;86604;1290;22679;-75
2022/12/25 07:20:29;;;;;;;75.90;38.90;;;;;;;2.28;93.49;99319.48;86721;1289;97972;-74
2022/12/25 07:22:31;;;;;;;79.80;37.50;;;;;;;2.31;93.59;99324.48;86562;1297;22540;-75
2022/12/25 07:24:33;;;;;;;74.40;39.80;;;;;;;2.32;93.59;99325.86;86623;1298;22441;-76
2022/12/25 07:26:35;;;;;;;71.80;37.70;;;;;;;2.34;93.58;99329.83;86514;1291;99260;-75
2022/12/25 07:28:36;;;;;;;80.70;37.80;;;;;;;2.35;93.42;99337.80;86637;1312;22516;-75
2022/12/25 07:30:38;;;;;;;66.90;38.30;;;;;;;2.37;93.46;99337.09;86277;1299;22503;-74
2022/12/25 07:32:40;;;;;;;77.50;39.00;;;;;;;2.39;93.67;99336.73;86500;1313;97998;-75
2022/12/25 07:34:41;;;;;;;68.40;37.20;;;;;;;2.41;93.75;99339.31;86223;1307;22546;-75
2022/12/25 07:36:43;;;;;;;68.10;37.70;;;;;;;2.44;93.43;99345.88;86306;1315;25589;-75
2022/12/25 07:38:49;;;;;;;73.00;37.70;;;;;;;2.46;93.72;99351.75;86350;1290;97895;-75
2022/12/25 07:40:51;;;;;;;65.40;38.20;;;;;;;2.49;93.58;99351.73;86506;1289;22664;-76
2022/12/25 07:42:53;;;;;;;69.40;38.30;;;;;;;2.48;93.80;99353.11;86406;1315;24218;-75
2022/12/25 07:44:55;;;;;;;68.80;40.70;;;;;;;2.54;93.69;99360.86;86483;1291;98018;-75
2022/12/25 07:46:56;;;;;;;71.40;38.30;;;;;;;2.57;93.69;99357.38;86495;1291;22506;-75
2022/12/25 07:48:58;;;;;;;65.60;39.30;;;;;;;2.58;93.54;99362.92;86309;1293;25378;-74
2022/12/25 07:51:06;;;;;;;67.80;36.40;;;;;;;2.59;93.74;99366.02;86521;1288;98044;-74
2022/12/25 07:53:07;;;;;;;65.60;36.00;;;;;;;2.59;93.44;99368.98;86440;1283;22451;-74
2022/12/25 07:55:09;;;;;;;62.50;33.80;;;;;;;2.59;93.62;99373.84;86279;1283;24290;-75
2022/12/25 07:57:11;;;;;;;63.10;34.70;;;;;;;2.60;93.62;99375.02;86437;1312;97922;-75
2022/12/25 07:59:13;;;;;;;59.20;33.10;;;;;;;2.63;93.61;99383.16;86350;1298;26984;-74
2022/12/25 08:01:18;;;;;;;70.40;33.70;;;;;;;2.65;93.62;99380.88;86318;1307;98737;-74
2022/12/25 08:03:20;;;;;;;60.70;32.80;;;;;;;2.66;93.76;99380.70;86386;1299;23358;-74
2022/12/25 08:05:22;;;;;;;59.00;31.60;;;;;;;2.69;93.49;99384.66;86548;1287;24240;-75
2022/12/25 08:07:24;;;;;;;59.60;32.00;;;;;;;2.72;93.83;99383.59;86228;1297;100308;-76
2022/12/25 08:09:25;;;;;;;51.50;29.80;;;;;;;2.75;93.82;99381.48;86378;1284;22726;-75
2022/12/25 08:11:27;;;;;;;59.50;30.50;;;;;;;2.77;93.78;99381.46;86365;1282;22977;-76
2022/12/25 08:13:32;;;;;;;54.50;29.80;;;;;;;2.79;93.72;99384.05;86424;1287;99048;-74
2022/12/25 08:15:33;;;;;;;59.70;31.20;;;;;;;2.81;93.64;99383.86;86471;1281;22474;-75
2022/12/25 08:17:35;;;;;;;60.70;33.80;;;;;;;2.83;93.45;99381.75;86211;1283;23088;-74
2022/12/25 08:19:38;;;;;;;57.00;30.90;;;;;;;2.85;93.57;99380.70;86281;1286;97784;-74
2022/12/25 08:21:42;;;;;;;53.60;29.10;;;;;;;2.87;93.61;99383.79;86260;1291;22641;-75
2022/12/25 08:23:46;;;;;;;55.40;30.40;;;;;;;2.90;93.45;99378.56;86332;1287;22460;-74
2022/12/25 08:25:47;;;;;;;51.60;29.10;;;;;;;2.91;93.47;99379.59;86219;1283;98666;-74
2022/12/25 08:27:49;;;;;;;60.50;30.70;;;;;;;2.92;93.68;99380.61;86293;1310;22493;-75
2022/12/25 08:29:51;;;;;;;53.50;30.60;;;;;;;2.94;93.66;99384.41;86291;1288;23455;-74
2022/12/25 08:31:53;;;;;;;54.80;29.50;;;;;;;2.97;93.54;99383.00;86255;1291;97902;-76
2022/12/25 08:33:56;;;;;;;62.90;29.70;;;;;;;2.99;93.50;99386.45;86324;1312;22611;-74
2022/12/25 08:36:04;;;;;;;55.70;27.60;;;;;;;3.01;93.48;99391.30;86624;1297;22531;-74
2022/12/25 08:38:06;;;;;;;49.40;25.80;;;;;;;3.02;93.59;99388.34;86378;1287;97878;-74
2022/12/25 08:40:08;;;;;;;56.40;26.70;;;;;;;3.04;93.64;99390.21;86383;1296;22482;-76
2022/12/25 08:42:10;;;;;;;46.80;25.10;;;;;;;3.04;93.38;99386.03;86546;1281;22487;-80
2022/12/25 08:44:11;;;;;;;43.00;25.80;;;;;;;3.05;93.62;99387.42;87066;1298;98102;-81
2022/12/25 08:46:14;;;;;;;48.10;26.30;;;;;;;3.05;93.34;99385.35;87374;1295;22477;-80
2022/12/25 08:48:16;;;;;;;39.80;25.60;;;;;;;3.04;93.32;99380.49;87302;1297;24362;-79
2022/12/25 08:50:17;;;;;;;46.20;26.60;;;;;;;3.06;93.43;99374.91;87224;1297;98025;-80
2022/12/25 08:52:19;;;;;;;42.50;24.20;;;;;;;3.08;93.43;99372.48;87177;1297;24278;-79
2022/12/25 08:54:21;;;;;;;40.50;25.60;;;;;;;3.07;93.40;99365.19;87462;1296;22575;-77
2022/12/25 08:56:23;;;;;;;42.40;23.80;;;;;;;3.05;93.37;99365.72;87539;1298;97935;-81
2022/12/25 08:58:27;;;;;;;44.70;24.90;;;;;;;3.03;93.31;99365.22;87516;1297;22614;-82
2022/12/25 09:00:29;;;;;;;46.60;25.40;;;;;;;3.00;93.01;99362.83;87554;1291;22484;-82
2022/12/25 09:02:30;;;;;;;58.40;27.80;;;;;;;3.00;93.27;99357.27;86989;1297;97929;-81
2022/12/25 09:04:32;;;;;;;48.40;27.80;;;;;;;3.02;93.15;99352.74;87087;1297;23877;-81
2022/12/25 09:06:34;;;;;;;48.90;30.40;;;;;;;3.03;93.31;99353.93;87166;1295;22078;-79
2022/12/25 09:08:36;;;;;;;55.80;30.60;;;;;;;3.06;93.32;99363.64;86936;1297;97904;-79
2022/12/25 09:10:38;;;;;;;54.30;30.20;;;;;;;3.09;93.22;99373.14;86996;1283;25243;-77
2022/12/25 09:12:39;;;;;;;51.10;32.20;;;;;;;3.12;93.35;99382.83;87101;1295;22514;-83
2022/12/25 09:14:42;;;;;;;51.60;31.20;;;;;;;3.16;93.45;99389.56;87002;1303;98056;-77
2022/12/25 09:16:44;;;;;;;48.30;30.20;;;;;;;3.19;93.22;99392.64;86893;1316;23023;-80
2022/12/25 09:18:46;;;;;;;54.70;30.90;;;;;;;3.24;93.33;99398.85;86942;1297;22438;-80
2022/12/25 09:20:57;;;;;;;49.50;30.00;;;;;;;3.28;93.40;99400.89;86909;1299;98526;-80
2022/12/25 09:22:59;;;;;;;49.30;28.20;;;;;;;3.32;93.30;99398.40;87042;1288;22501;-80
2022/12/25 09:25:01;;;;;;;47.70;27.00;;;;;;;3.36;93.22;99405.66;86935;1290;22642;-81
2022/12/25 09:27:02;;;;;;;50.00;26.40;;;;;;;3.38;93.32;99408.58;86860;1290;99109;-80
2022/12/25 09:29:04;;;;;;;47.90;26.20;;;;;;;3.43;93.46;99409.55;86893;1287;22681;-80
2022/12/25 09:31:06;;;;;;;44.20;27.00;;;;;;;3.48;93.51;99410.20;87021;1297;22449;-80
2022/12/25 09:33:07;;;;;;;50.70;27.30;;;;;;;3.53;93.64;99407.34;86904;1296;97885;-80
2022/12/25 09:35:09;;;;;;;45.90;27.20;;;;;;;3.58;93.58;99409.37;86833;1304;22758;-77
2022/12/25 09:37:11;;;;;;;48.00;27.00;;;;;;;3.63;93.59;99409.14;86842;1315;23917;-80
2022/12/25 09:39:13;;;;;;;50.40;28.30;;;;;;;3.70;93.55;99408.89;86894;1297;24311;-79
2022/12/25 09:41:38;;;;;;;54.00;28.20;;;;;;;3.73;93.53;99409.17;86857;1298;22966;-80
2022/12/25 09:43:49;;;;;;;46.40;27.50;;;;;;;3.78;93.63;99409.12;86883;1306;98446;-81
2022/12/25 09:45:52;;;;;;;48.60;25.00;;;;;;;3.82;93.47;99412.20;86832;1294;22490;-81
2022/12/25 09:47:55;;;;;;;53.30;27.60;;;;;;;3.84;93.54;99414.25;86910;1312;22768;-80
2022/12/25 09:50:05;;;;;;;49.40;27.00;;;;;;;3.86;93.55;99419.42;86672;1297;98221;-81
2022/12/25 09:52:24;;;;;;;50.80;28.70;;;;;;;3.90;93.52;99420.07;86846;1297;22529;-80
2022/12/25 09:54:53;;;;;;;51.40;28.90;;;;;;;4.01;93.57;99420.79;87050;1310;22518;-80
2022/12/25 09:56:55;;;;;;;48.60;28.60;;;;;;;4.16;93.71;99416.92;86793;1312;98550;-80
2022/12/25 09:58:57;;;;;;;55.60;27.70;;;;;;;4.27;93.80;99413.98;86726;1313;22494;-79
2022/12/25 10:01:38;;;;;;;39.60;25.40;;;;;;;4.38;93.84;99414.48;86770;1299;22518;-77
2022/12/25 10:03:45;;;;;;;46.40;24.40;;;;;;;4.44;93.62;99415.10;87190;1313;22437;-82
2022/12/25 10:06:23;;;;;;;38.60;22.70;;;;;;;4.51;93.68;99420.73;87074;1293;22498;-83
2022/12/25 10:08:45;;;;;;;33.80;21.90;;;;;;;4.72;93.76;99423.51;86719;1299;98095;-82
2022/12/25 10:10:57;;;;;;;34.90;21.50;;;;;;;4.92;93.87;99423.15;87116;1315;22908;-81
2022/12/25 10:13:37;;;;;;;40.50;21.70;;;;;;;4.96;93.78;99429.52;86864;1300;23169;-81
2022/12/25 10:16:04;;;;;;;37.70;21.40;;;;;;;5.11;93.72;99436.05;87112;1294;22516;-81
2022/12/25 10:18:28;;;;;;;42.20;20.30;;;;;;;5.35;93.90;99428.80;87075;1294;22481;-82
2022/12/25 10:21:01;;;;;;;32.40;19.60;;;;;;;5.72;94.17;99428.77;87035;1313;98214;-77
2022/12/25 10:23:13;;;;;;;37.60;19.60;;;;;;;6.11;94.14;99430.73;86527;1312;22501;-77
2022/12/25 10:25:23;;;;;;;36.90;19.00;;;;;;;6.35;93.98;99426.16;86522;1291;22599;-76
2022/12/25 10:27:33;;;;;;;36.20;18.90;;;;;;;6.62;94.19;99426.05;86463;1297;98981;-77
2022/12/25 10:29:35;;;;;;;39.90;19.40;;;;;;;6.86;93.92;99418.98;86510;1288;25455;-77
2022/12/25 10:31:36;;;;;;;32.60;20.20;;;;;;;7.07;93.93;99415.80;86277;1287;98026;-76
2022/12/25 10:33:38;;;;;;;33.30;20.40;;;;;;;7.12;93.85;99415.31;86428;1312;23232;-75
2022/12/25 10:35:40;;;;;;;35.80;20.00;;;;;;;6.94;93.45;99409.34;86399;1284;24194;-75
2022/12/25 10:37:45;;;;;;;35.10;19.10;;;;;;;6.74;92.68;99406.70;86306;1313;98047;-75
2022/12/25 10:39:46;;;;;;;28.80;18.20;;;;;;;6.46;92.49;99392.05;86456;1284;25960;-75
2022/12/25 10:42:04;;;;;;;31.40;19.70;;;;;;;6.35;92.50;99394.92;86495;1280;22506;-75
2022/12/25 10:44:19;;;;;;;34.90;19.80;;;;;;;6.17;92.19;99392.04;86482;1297;97942;-75
2022/12/25 10:46:23;;;;;;;28.80;17.60;;;;;;;6.04;92.08;99389.91;86304;1286;25860;-76
2022/12/25 10:48:28;;;;;;;31.60;18.10;;;;;;;5.97;92.09;99387.08;86236;1284;22519;-75
2022/12/25 10:50:32;;;;;;;28.90;18.80;;;;;;;5.86;92.31;99384.86;86392;1294;99007;-77
2022/12/25 10:52:34;;;;;;;29.00;16.20;;;;;;;5.81;92.20;99389.50;86558;1283;22603;-74
2022/12/25 10:54:36;;;;;;;28.30;16.40;;;;;;;5.77;92.49;99384.52;86305;1288;25361;-75
2022/12/25 10:56:38;;;;;;;32.30;17.00;;;;;;;5.72;92.70;99385.34;86109;1284;99008;-76
2022/12/25 10:58:40;;;;;;;30.50;16.40;;;;;;;5.68;92.62;99382.48;86239;1290;22728;-76
2022/12/25 11:00:52;;;;;;;33.70;17.10;;;;;;;5.63;92.70;99381.35;86212;1291;23899;-73
2022/12/25 11:02:55;;;;;;;34.00;17.30;;;;;;;5.60;92.56;99373.91;86123;1291;99384;-75
2022/12/25 11:05:06;;;;;;;34.50;16.20;;;;;;;5.58;92.66;99372.04;86358;1297;25854;-74
2022/12/25 11:07:17;;;;;;;32.40;15.70;;;;;;;5.57;92.73;99362.48;86134;1291;22500;-75
2022/12/25 11:09:19;;;;;;;24.60;14.90;;;;;;;5.57;92.82;99362.29;86326;1288;98790;-75
2022/12/25 11:11:21;;;;;;;27.80;15.60;;;;;;;5.56;92.87;99358.65;86277;1312;22539;-75
2022/12/25 11:13:28;;;;;;;22.90;13.90;;;;;;;5.53;92.87;99355.60;86132;1312;22534;-74
2022/12/25 11:15:43;;;;;;;31.70;15.90;;;;;;;5.54;92.83;99358.52;86233;1298;22715;-75
2022/12/25 11:17:48;;;;;;;23.90;13.70;;;;;;;5.51;92.83;99357.20;86230;1281;221949;-75
2022/12/25 11:20:01;;;;;;;23.80;13.20;;;;;;;5.45;92.62;99349.84;86501;1288;99282;-75
2022/12/25 11:22:04;;;;;;;22.50;12.50;;;;;;;5.39;92.67;99345.60;86246;1306;23383;-75
2022/12/25 11:24:17;;;;;;;21.30;11.70;;;;;;;5.35;92.61;99347.95;86241;1290;23512;-75